Lifter — V2DD4 — position and weather

sailwx.info

Track history (hours):
 
Tides and Currents Weather Stations Pressure Air Temp Water Temp Dewpoint Dewpoint Depression Visibility Wind Speed Wind Dir Waves Ship Positions

Lifter

Last reported at 2014-Jul-29 06:30 UTC. Time now 2014-Aug-01 12:02 UTC.
Position N 50°10' W 002°04'.

Length 118 m; draft 7.2 m.

Type: Ship. MMSI: 305175000.

Date/timePositionNaut miles runAvg speedWind from/ knotsBaromVisibWave heightAir tempDewpointWater temp
2014-Jul-29 06:30N 50°10' W 002°04'1413.0
2014-Jul-29 05:27N 50°14' W 001°43'1313.9
2014-Jul-29 04:31N 50°20' W 001°25'1414.8
2014-Jul-29 03:34N 50°29' W 001°09'1413.9
2014-Jul-29 02:33N 50°41' W 000°58'1010.3
2014-Jul-29 01:33N 50°46' W 001°13'9 8.7
2014-Jul-29 00:33N 50°52' W 001°22'3 2.7
2014-Jul-28 23:33N 50°54' W 001°25'0 0.0
2014-Jul-28 22:33N 50°54' W 001°25'0 0.0
2014-Jul-28 21:33N 50°54' W 001°25'0 0.0
2014-Jul-28 20:33N 50°54' W 001°25'0 0.0
2014-Jul-28 19:33N 50°54' W 001°25'0 0.0
2014-Jul-28 17:33N 50°54' W 001°25'0 0.0
2014-Jul-28 16:24N 50°54' W 001°25'0 0.0
2014-Jul-28 15:33N 50°54' W 001°25'0 0.0
2014-Jul-28 14:09N 50°54' W 001°25'0 0.0
2014-Jul-28 13:27N 50°54' W 001°25'0 0.0
2014-Jul-28 12:33N 50°54' W 001°25'0 0.0
2014-Jul-28 11:27N 50°54' W 001°25'0 0.0
2014-Jul-28 10:30N 50°54' W 001°25'0 0.0
2014-Jul-28 09:33N 50°54' W 001°25'0 0.0
2014-Jul-28 08:30N 50°54' W 001°25'0 0.0
2014-Jul-28 05:12N 50°54' W 001°25'0 0.0
2014-Jul-28 04:06N 50°54' W 001°25'0 0.0
2014-Jul-28 02:33N 50°54' W 001°25'0 0.0
2014-Jul-28 01:33N 50°54' W 001°25'0 0.0
2014-Jul-28 00:33N 50°54' W 001°25'0 0.0
2014-Jul-27 23:09N 50°54' W 001°25'0 0.0
2014-Jul-27 22:15N 50°54' W 001°25'0 0.0
2014-Jul-27 21:33N 50°54' W 001°25'0 0.0
2014-Jul-27 20:15N 50°54' W 001°25'0 0.0
2014-Jul-27 19:33N 50°54' W 001°25'0 0.0
2014-Jul-27 18:33N 50°54' W 001°25'2 2.1
2014-Jul-27 17:33N 50°52' W 001°23'10 9.6
2014-Jul-27 16:33N 50°46' W 001°12'10 9.7
2014-Jul-27 15:34N 50°42' W 000°58'6 5.6
2014-Jul-27 14:33N 50°38' W 001°04'0 0.0
2014-Jul-27 13:33N 50°38' W 001°04'0 0.1
2014-Jul-27 12:33N 50°38' W 001°04'0 0.0
2014-Jul-27 11:33N 50°38' W 001°04'0 0.2
2014-Jul-27 10:30N 50°38' W 001°04'0 0.0
2014-Jul-27 09:33N 50°38' W 001°04'0 0.0
2014-Jul-27 08:33N 50°38' W 001°04'0 0.1
2014-Jul-27 07:33N 50°38' W 001°04'7 7.4
2014-Jul-27 06:33N 50°38' W 000°53'1111.2
2014-Jul-27 05:33N 50°36' W 000°35'1211.8
2014-Jul-27 04:33N 50°34' W 000°17'1212.0
2014-Jul-27 03:32N 50°33' E 000°02'1313.1
2014-Jul-27 02:33N 50°36' E 000°22'1312.8
2014-Jul-27 01:33N 50°42' E 000°40'1211.7
2014-Jul-27 00:33N 50°48' E 000°55'1110.7
2014-Jul-26 23:33N 50°55' E 001°09'1010.3
2014-Jul-26 22:34N 51°01' E 001°21'1111.3
2014-Jul-26 21:33N 51°08' E 001°36'1212.2
2014-Jul-26 20:33N 51°17' E 001°48'1211.7
2014-Jul-26 19:33N 51°24' E 002°04'1413.0
2014-Jul-26 18:29N 51°22' E 002°26'1213.4
2014-Jul-26 17:33N 51°23' E 002°45'1313.1
2014-Jul-26 16:33N 51°24' E 003°06'1413.8
2014-Jul-26 15:33N 51°25' E 003°28'10 9.6
2014-Jul-26 14:33N 51°23' E 003°43'9 8.8
2014-Jul-26 13:34N 51°24' E 003°57'6 6.1
2014-Jul-26 12:33N 51°22' E 004°06'7 7.4
2014-Jul-26 11:33N 51°18' E 004°17'3 2.7
2014-Jul-26 10:34N 51°17' E 004°20'1 0.9
2014-Jul-26 09:33N 51°16' E 004°21'2 2.2
2014-Jul-26 08:31N 51°15' E 004°24'0 0.0
2014-Jul-26 07:31N 51°15' E 004°24'0 0.0
2014-Jul-26 06:31N 51°15' E 004°24'0 0.0
2014-Jul-26 05:31N 51°15' E 004°24'0 0.0
2014-Jul-26 04:31N 51°15' E 004°24'0 0.0
2014-Jul-26 03:32N 51°15' E 004°24'0 0.0
2014-Jul-26 02:31N 51°15' E 004°24'0 0.0
2014-Jul-26 01:31N 51°15' E 004°24'0 0.0
2014-Jul-26 00:31N 51°15' E 004°24'0 0.0
2014-Jul-25 23:31N 51°15' E 004°24'0 0.0
2014-Jul-25 22:31N 51°15' E 004°24'0 0.0
2014-Jul-25 21:31N 51°15' E 004°24'0 0.0
2014-Jul-25 20:31N 51°15' E 004°24'0 0.0
2014-Jul-25 19:31N 51°15' E 004°24'0 0.0
2014-Jul-25 18:32N 51°15' E 004°24'0 0.0
2014-Jul-25 17:31N 51°15' E 004°24'0 0.0
2014-Jul-25 16:31N 51°15' E 004°24'0 0.0
2014-Jul-25 15:31N 51°15' E 004°24'0 0.0
2014-Jul-25 14:31N 51°15' E 004°24'0 0.0
2014-Jul-25 13:32N 51°15' E 004°24'0 0.0
2014-Jul-25 12:31N 51°15' E 004°24'0 0.0
2014-Jul-25 11:31N 51°15' E 004°24'0 0.0
2014-Jul-25 10:32N 51°15' E 004°24'0 0.0
2014-Jul-25 09:31N 51°15' E 004°24'0 0.0
2014-Jul-25 08:31N 51°15' E 004°24'0 0.0
2014-Jul-25 07:32N 51°15' E 004°24'0 0.0
2014-Jul-25 06:31N 51°15' E 004°24'0 0.0
2014-Jul-25 05:31N 51°15' E 004°24'0 0.0
2014-Jul-25 04:32N 51°15' E 004°24'0 0.0
2014-Jul-25 03:31N 51°15' E 004°24'0 0.0
2014-Jul-25 02:31N 51°15' E 004°24'0 0.0
2014-Jul-25 01:31N 51°15' E 004°24'0 0.0
2014-Jul-25 00:31N 51°15' E 004°24'0 0.0
2014-Jul-24 23:31N 51°15' E 004°24'0 0.0
2014-Jul-24 22:31N 51°15' E 004°24'0 0.0
2014-Jul-24 21:31N 51°15' E 004°24'0 0.0
2014-Jul-24 20:31N 51°15' E 004°24'0 0.0
2014-Jul-24 19:31N 51°15' E 004°24'0 0.0
2014-Jul-24 18:31N 51°15' E 004°24'0 0.0
2014-Jul-24 17:31N 51°15' E 004°24'0 0.0
2014-Jul-24 16:31N 51°15' E 004°24'0 0.0
2014-Jul-24 15:31N 51°15' E 004°24'0 0.0
2014-Jul-24 14:31N 51°15' E 004°24'0 0.0
2014-Jul-24 13:32N 51°15' E 004°24'0 0.0
2014-Jul-24 12:31N 51°15' E 004°24'0 0.0
2014-Jul-24 11:31N 51°15' E 004°24'0 0.0
2014-Jul-24 10:31N 51°15' E 004°24'0 0.0
2014-Jul-24 09:31N 51°15' E 004°24'0 0.0
2014-Jul-24 08:32N 51°15' E 004°24'0 0.0
2014-Jul-24 07:31N 51°15' E 004°24'0 0.0
2014-Jul-24 06:31N 51°15' E 004°24'0 0.0
2014-Jul-24 05:28N 51°15' E 004°24'0 0.0
2014-Jul-24 04:31N 51°15' E 004°24'0 0.0
2014-Jul-24 03:32N 51°15' E 004°24'0 0.0
2014-Jul-24 02:31N 51°15' E 004°24'0 0.0
2014-Jul-24 01:32N 51°15' E 004°24'0 0.0
2014-Jul-24 00:31N 51°15' E 004°24'0 0.0
2014-Jul-23 23:32N 51°15' E 004°24'0 0.0
2014-Jul-23 22:32N 51°15' E 004°24'0 0.0
2014-Jul-23 21:31N 51°15' E 004°24'0 0.0
2014-Jul-23 20:32N 51°15' E 004°24'0 0.0
2014-Jul-23 19:31N 51°15' E 004°24'0 0.0
2014-Jul-23 18:31N 51°15' E 004°24'0 0.0
2014-Jul-23 17:31N 51°15' E 004°24'0 0.0
2014-Jul-23 16:31N 51°15' E 004°24'0 0.0
2014-Jul-23 15:31N 51°15' E 004°24'0 0.0
2014-Jul-23 14:31N 51°15' E 004°24'0 0.0
2014-Jul-23 13:31N 51°15' E 004°24'0 0.0
2014-Jul-23 12:31N 51°15' E 004°24'0 0.0
2014-Jul-23 11:31N 51°15' E 004°24'0 0.0
2014-Jul-23 10:31N 51°15' E 004°24'0 0.0
2014-Jul-23 09:32N 51°15' E 004°24'0 0.0
2014-Jul-23 08:31N 51°15' E 004°24'0 0.0
2014-Jul-23 07:32N 51°15' E 004°24'0 0.0
2014-Jul-23 06:31N 51°15' E 004°24'0 0.0
2014-Jul-23 05:31N 51°15' E 004°24'0 0.0
2014-Jul-23 04:31N 51°15' E 004°24'3 2.8
2014-Jul-23 03:33N 51°16' E 004°20'1 0.7
2014-Jul-23 02:33N 51°17' E 004°21'0 0.0
2014-Jul-23 01:33N 51°17' E 004°21'0 0.0
2014-Jul-23 00:33N 51°17' E 004°21'0 0.0
2014-Jul-22 23:33N 51°17' E 004°21'0 0.0
2014-Jul-22 22:33N 51°17' E 004°21'0 0.0
2014-Jul-22 21:33N 51°17' E 004°21'0 0.0
2014-Jul-22 20:33N 51°17' E 004°21'0 0.0
2014-Jul-22 19:33N 51°17' E 004°21'0 0.0
2014-Jul-22 18:33N 51°17' E 004°21'0 0.0
2014-Jul-22 17:33N 51°17' E 004°21'0 0.0
2014-Jul-22 16:33N 51°17' E 004°21'0 0.0
2014-Jul-22 15:33N 51°17' E 004°21'0 0.0
2014-Jul-22 14:30N 51°17' E 004°21'0 0.0
2014-Jul-22 13:33N 51°17' E 004°21'0 0.0
2014-Jul-22 12:33N 51°17' E 004°21'0 0.0
2014-Jul-22 11:33N 51°17' E 004°21'0 0.0
2014-Jul-22 10:33N 51°17' E 004°21'0 0.0
2014-Jul-22 09:33N 51°17' E 004°21'0 0.0
2014-Jul-22 08:33N 51°17' E 004°21'0 0.0
2014-Jul-22 07:33N 51°17' E 004°21'0 0.0
2014-Jul-22 06:33N 51°17' E 004°21'0 0.0
2014-Jul-22 05:33N 51°17' E 004°21'0 0.0
2014-Jul-22 04:33N 51°17' E 004°21'0 0.0
2014-Jul-22 03:33N 51°17' E 004°21'0 0.0
2014-Jul-22 02:33N 51°17' E 004°21'0 0.0
2014-Jul-22 01:33N 51°17' E 004°21'0 0.0
2014-Jul-22 00:33N 51°17' E 004°21'0 0.0
2014-Jul-21 23:33N 51°17' E 004°21'0 0.0
2014-Jul-21 22:33N 51°17' E 004°21'0 0.0
2014-Jul-21 21:33N 51°17' E 004°21'0 0.0
2014-Jul-21 20:33N 51°17' E 004°21'0 0.0
2014-Jul-21 20:18N 51°17' E 004°21'0 0.0
2014-Jul-21 19:30N 51°17' E 004°21'0 0.0
2014-Jul-21 18:33N 51°17' E 004°21'0 0.0
2014-Jul-21 17:32N 51°17' E 004°21'0 0.0
2014-Jul-21 16:32N 51°17' E 004°21'0 0.0
2014-Jul-21 15:32N 51°17' E 004°21'0 0.0
2014-Jul-21 14:32N 51°17' E 004°21'0 0.0
2014-Jul-21 13:32N 51°17' E 004°21'0 0.0
2014-Jul-21 12:32N 51°17' E 004°21'0 0.0
2014-Jul-21 11:32N 51°17' E 004°21'0 0.0
2014-Jul-21 10:32N 51°17' E 004°21'0 0.0
2014-Jul-21 09:32N 51°17' E 004°21'0 0.0
2014-Jul-21 08:29N 51°17' E 004°21'0 0.0
2014-Jul-21 07:32N 51°17' E 004°21'0 0.0
2014-Jul-21 06:32N 51°17' E 004°21'0 0.0
2014-Jul-21 05:32N 51°17' E 004°21'0 0.0
2014-Jul-21 04:32N 51°17' E 004°21'0 0.0
2014-Jul-21 03:32N 51°17' E 004°21'0 0.0
2014-Jul-21 02:32N 51°17' E 004°21'0 0.0
2014-Jul-21 01:32N 51°17' E 004°21'0 0.0
2014-Jul-21 00:32N 51°17' E 004°21'0 0.0
2014-Jul-20 23:32N 51°17' E 004°21'0 0.0
2014-Jul-20 22:32N 51°17' E 004°21'0 0.0
2014-Jul-20 21:32N 51°17' E 004°21'0 0.0
2014-Jul-20 20:32N 51°17' E 004°21'0 0.0
2014-Jul-20 19:32N 51°17' E 004°21'0 0.0
2014-Jul-20 18:32N 51°17' E 004°21'0 0.0
2014-Jul-20 17:32N 51°17' E 004°21'0 0.0
2014-Jul-20 16:32N 51°17' E 004°21'0 0.0
2014-Jul-20 15:32N 51°17' E 004°21'0 0.0
2014-Jul-20 14:32N 51°17' E 004°21'0 0.0
2014-Jul-20 13:32N 51°17' E 004°21'0 0.0
2014-Jul-20 12:32N 51°17' E 004°21'0 0.0
2014-Jul-20 11:32N 51°17' E 004°21'0 0.0
2014-Jul-20 10:32N 51°17' E 004°21'0 0.0
2014-Jul-20 09:32N 51°17' E 004°21'0 0.0
2014-Jul-20 08:32N 51°17' E 004°21'0 0.0
2014-Jul-20 07:32N 51°17' E 004°21'0 0.0
2014-Jul-20 06:32N 51°17' E 004°21'0 0.0
2014-Jul-20 05:32N 51°17' E 004°21'0 0.0
2014-Jul-20 04:32N 51°17' E 004°21'0 0.0
2014-Jul-20 03:32N 51°17' E 004°21'0 0.0
2014-Jul-20 02:32N 51°17' E 004°21'0 0.0
2014-Jul-20 01:32N 51°17' E 004°21'0 0.0
2014-Jul-20 00:32N 51°17' E 004°21'0 0.0
2014-Jul-19 23:32N 51°17' E 004°21'0 0.0
2014-Jul-19 22:32N 51°17' E 004°21'0 0.0
2014-Jul-19 21:32N 51°17' E 004°21'0 0.0
2014-Jul-19 20:32N 51°17' E 004°21'0 0.0
2014-Jul-19 19:32N 51°17' E 004°21'0 0.0
2014-Jul-19 18:32N 51°17' E 004°21'0 0.0
2014-Jul-19 17:32N 51°17' E 004°21'0 0.0
2014-Jul-19 16:32N 51°17' E 004°21'0 0.0
2014-Jul-19 15:32N 51°17' E 004°21'0 0.0
2014-Jul-19 14:32N 51°17' E 004°21'0 0.0
2014-Jul-19 13:32N 51°17' E 004°21'0 0.0
2014-Jul-19 12:32N 51°17' E 004°21'0 0.0
2014-Jul-19 11:32N 51°17' E 004°21'0 0.0
2014-Jul-19 10:32N 51°17' E 004°21'0 0.0
2014-Jul-19 09:32N 51°17' E 004°21'0 0.0
2014-Jul-19 08:32N 51°17' E 004°21'0 0.0
2014-Jul-19 07:32N 51°17' E 004°21'0 0.0
2014-Jul-19 06:32N 51°17' E 004°21'  
Track history (hours):
 
Tides and Currents Weather Stations Pressure Air Temp Water Temp Dewpoint Dewpoint Depression Visibility Wind Speed Wind Dir Waves Ship Positions

Lifter

Last reported at 2014-Jul-29 06:30 UTC. Time now 2014-Aug-01 12:02 UTC.
Position N 50°10' W 002°04'.

Length 118 m; draft 7.2 m.

Type: Ship. MMSI: 305175000.

Date/timePositionNaut miles runAvg speedWind from/ knotsBaromVisibWave heightAir tempDewpointWater temp
2014-Jul-29 06:30N 50°10' W 002°04'1413.0
2014-Jul-29 05:27N 50°14' W 001°43'1313.9
2014-Jul-29 04:31N 50°20' W 001°25'1414.8
2014-Jul-29 03:34N 50°29' W 001°09'1413.9
2014-Jul-29 02:33N 50°41' W 000°58'1010.3
2014-Jul-29 01:33N 50°46' W 001°13'9 8.7
2014-Jul-29 00:33N 50°52' W 001°22'3 2.7
2014-Jul-28 23:33N 50°54' W 001°25'0 0.0
2014-Jul-28 22:33N 50°54' W 001°25'0 0.0
2014-Jul-28 21:33N 50°54' W 001°25'0 0.0
2014-Jul-28 20:33N 50°54' W 001°25'0 0.0
2014-Jul-28 19:33N 50°54' W 001°25'0 0.0
2014-Jul-28 17:33N 50°54' W 001°25'0 0.0
2014-Jul-28 16:24N 50°54' W 001°25'0 0.0
2014-Jul-28 15:33N 50°54' W 001°25'0 0.0
2014-Jul-28 14:09N 50°54' W 001°25'0 0.0
2014-Jul-28 13:27N 50°54' W 001°25'0 0.0
2014-Jul-28 12:33N 50°54' W 001°25'0 0.0
2014-Jul-28 11:27N 50°54' W 001°25'0 0.0
2014-Jul-28 10:30N 50°54' W 001°25'0 0.0
2014-Jul-28 09:33N 50°54' W 001°25'0 0.0
2014-Jul-28 08:30N 50°54' W 001°25'0 0.0
2014-Jul-28 05:12N 50°54' W 001°25'0 0.0
2014-Jul-28 04:06N 50°54' W 001°25'0 0.0
2014-Jul-28 02:33N 50°54' W 001°25'0 0.0
2014-Jul-28 01:33N 50°54' W 001°25'0 0.0
2014-Jul-28 00:33N 50°54' W 001°25'0 0.0
2014-Jul-27 23:09N 50°54' W 001°25'0 0.0
2014-Jul-27 22:15N 50°54' W 001°25'0 0.0
2014-Jul-27 21:33N 50°54' W 001°25'0 0.0
2014-Jul-27 20:15N 50°54' W 001°25'0 0.0
2014-Jul-27 19:33N 50°54' W 001°25'0 0.0
2014-Jul-27 18:33N 50°54' W 001°25'2 2.1
2014-Jul-27 17:33N 50°52' W 001°23'10 9.6
2014-Jul-27 16:33N 50°46' W 001°12'10 9.7
2014-Jul-27 15:34N 50°42' W 000°58'6 5.6
2014-Jul-27 14:33N 50°38' W 001°04'0 0.0
2014-Jul-27 13:33N 50°38' W 001°04'0 0.1
2014-Jul-27 12:33N 50°38' W 001°04'0 0.0
2014-Jul-27 11:33N 50°38' W 001°04'0 0.2
2014-Jul-27 10:30N 50°38' W 001°04'0 0.0
2014-Jul-27 09:33N 50°38' W 001°04'0 0.0
2014-Jul-27 08:33N 50°38' W 001°04'0 0.1
2014-Jul-27 07:33N 50°38' W 001°04'7 7.4
2014-Jul-27 06:33N 50°38' W 000°53'1111.2
2014-Jul-27 05:33N 50°36' W 000°35'1211.8
2014-Jul-27 04:33N 50°34' W 000°17'1212.0
2014-Jul-27 03:32N 50°33' E 000°02'1313.1
2014-Jul-27 02:33N 50°36' E 000°22'1312.8
2014-Jul-27 01:33N 50°42' E 000°40'1211.7
2014-Jul-27 00:33N 50°48' E 000°55'1110.7
2014-Jul-26 23:33N 50°55' E 001°09'1010.3
2014-Jul-26 22:34N 51°01' E 001°21'1111.3
2014-Jul-26 21:33N 51°08' E 001°36'1212.2
2014-Jul-26 20:33N 51°17' E 001°48'1211.7
2014-Jul-26 19:33N 51°24' E 002°04'1413.0
2014-Jul-26 18:29N 51°22' E 002°26'1213.4
2014-Jul-26 17:33N 51°23' E 002°45'1313.1
2014-Jul-26 16:33N 51°24' E 003°06'1413.8
2014-Jul-26 15:33N 51°25' E 003°28'10 9.6
2014-Jul-26 14:33N 51°23' E 003°43'9 8.8
2014-Jul-26 13:34N 51°24' E 003°57'6 6.1
2014-Jul-26 12:33N 51°22' E 004°06'7 7.4
2014-Jul-26 11:33N 51°18' E 004°17'3 2.7
2014-Jul-26 10:34N 51°17' E 004°20'1 0.9
2014-Jul-26 09:33N 51°16' E 004°21'2 2.2
2014-Jul-26 08:31N 51°15' E 004°24'0 0.0
2014-Jul-26 07:31N 51°15' E 004°24'0 0.0
2014-Jul-26 06:31N 51°15' E 004°24'0 0.0
2014-Jul-26 05:31N 51°15' E 004°24'0 0.0
2014-Jul-26 04:31N 51°15' E 004°24'0 0.0
2014-Jul-26 03:32N 51°15' E 004°24'0 0.0
2014-Jul-26 02:31N 51°15' E 004°24'0 0.0
2014-Jul-26 01:31N 51°15' E 004°24'0 0.0
2014-Jul-26 00:31N 51°15' E 004°24'0 0.0
2014-Jul-25 23:31N 51°15' E 004°24'0 0.0
2014-Jul-25 22:31N 51°15' E 004°24'0 0.0
2014-Jul-25 21:31N 51°15' E 004°24'0 0.0
2014-Jul-25 20:31N 51°15' E 004°24'0 0.0
2014-Jul-25 19:31N 51°15' E 004°24'0 0.0
2014-Jul-25 18:32N 51°15' E 004°24'0 0.0
2014-Jul-25 17:31N 51°15' E 004°24'0 0.0
2014-Jul-25 16:31N 51°15' E 004°24'0 0.0
2014-Jul-25 15:31N 51°15' E 004°24'0 0.0
2014-Jul-25 14:31N 51°15' E 004°24'0 0.0
2014-Jul-25 13:32N 51°15' E 004°24'0 0.0
2014-Jul-25 12:31N 51°15' E 004°24'0 0.0
2014-Jul-25 11:31N 51°15' E 004°24'0 0.0
2014-Jul-25 10:32N 51°15' E 004°24'0 0.0
2014-Jul-25 09:31N 51°15' E 004°24'0 0.0
2014-Jul-25 08:31N 51°15' E 004°24'0 0.0
2014-Jul-25 07:32N 51°15' E 004°24'0 0.0
2014-Jul-25 06:31N 51°15' E 004°24'0 0.0
2014-Jul-25 05:31N 51°15' E 004°24'0 0.0
2014-Jul-25 04:32N 51°15' E 004°24'0 0.0
2014-Jul-25 03:31N 51°15' E 004°24'0 0.0
2014-Jul-25 02:31N 51°15' E 004°24'0 0.0
2014-Jul-25 01:31N 51°15' E 004°24'0 0.0
2014-Jul-25 00:31N 51°15' E 004°24'0 0.0
2014-Jul-24 23:31N 51°15' E 004°24'0 0.0
2014-Jul-24 22:31N 51°15' E 004°24'0 0.0
2014-Jul-24 21:31N 51°15' E 004°24'0 0.0
2014-Jul-24 20:31N 51°15' E 004°24'0 0.0
2014-Jul-24 19:31N 51°15' E 004°24'0 0.0
2014-Jul-24 18:31N 51°15' E 004°24'0 0.0
2014-Jul-24 17:31N 51°15' E 004°24'0 0.0
2014-Jul-24 16:31N 51°15' E 004°24'0 0.0
2014-Jul-24 15:31N 51°15' E 004°24'0 0.0
2014-Jul-24 14:31N 51°15' E 004°24'0 0.0
2014-Jul-24 13:32N 51°15' E 004°24'0 0.0
2014-Jul-24 12:31N 51°15' E 004°24'0 0.0
2014-Jul-24 11:31N 51°15' E 004°24'0 0.0
2014-Jul-24 10:31N 51°15' E 004°24'0 0.0
2014-Jul-24 09:31N 51°15' E 004°24'0 0.0
2014-Jul-24 08:32N 51°15' E 004°24'0 0.0
2014-Jul-24 07:31N 51°15' E 004°24'0 0.0
2014-Jul-24 06:31N 51°15' E 004°24'0 0.0
2014-Jul-24 05:28N 51°15' E 004°24'0 0.0
2014-Jul-24 04:31N 51°15' E 004°24'0 0.0
2014-Jul-24 03:32N 51°15' E 004°24'0 0.0
2014-Jul-24 02:31N 51°15' E 004°24'0 0.0
2014-Jul-24 01:32N 51°15' E 004°24'0 0.0
2014-Jul-24 00:31N 51°15' E 004°24'0 0.0
2014-Jul-23 23:32N 51°15' E 004°24'0 0.0
2014-Jul-23 22:32N 51°15' E 004°24'0 0.0
2014-Jul-23 21:31N 51°15' E 004°24'0 0.0
2014-Jul-23 20:32N 51°15' E 004°24'0 0.0
2014-Jul-23 19:31N 51°15' E 004°24'0 0.0
2014-Jul-23 18:31N 51°15' E 004°24'0 0.0
2014-Jul-23 17:31N 51°15' E 004°24'0 0.0
2014-Jul-23 16:31N 51°15' E 004°24'0 0.0
2014-Jul-23 15:31N 51°15' E 004°24'0 0.0
2014-Jul-23 14:31N 51°15' E 004°24'0 0.0
2014-Jul-23 13:31N 51°15' E 004°24'0 0.0
2014-Jul-23 12:31N 51°15' E 004°24'0 0.0
2014-Jul-23 11:31N 51°15' E 004°24'0 0.0
2014-Jul-23 10:31N 51°15' E 004°24'0 0.0
2014-Jul-23 09:32N 51°15' E 004°24'0 0.0
2014-Jul-23 08:31N 51°15' E 004°24'0 0.0
2014-Jul-23 07:32N 51°15' E 004°24'0 0.0
2014-Jul-23 06:31N 51°15' E 004°24'0 0.0
2014-Jul-23 05:31N 51°15' E 004°24'0 0.0
2014-Jul-23 04:31N 51°15' E 004°24'3 2.8
2014-Jul-23 03:33N 51°16' E 004°20'1 0.7
2014-Jul-23 02:33N 51°17' E 004°21'0 0.0
2014-Jul-23 01:33N 51°17' E 004°21'0 0.0
2014-Jul-23 00:33N 51°17' E 004°21'0 0.0
2014-Jul-22 23:33N 51°17' E 004°21'0 0.0
2014-Jul-22 22:33N 51°17' E 004°21'0 0.0
2014-Jul-22 21:33N 51°17' E 004°21'0 0.0
2014-Jul-22 20:33N 51°17' E 004°21'0 0.0
2014-Jul-22 19:33N 51°17' E 004°21'0 0.0
2014-Jul-22 18:33N 51°17' E 004°21'0 0.0
2014-Jul-22 17:33N 51°17' E 004°21'0 0.0
2014-Jul-22 16:33N 51°17' E 004°21'0 0.0
2014-Jul-22 15:33N 51°17' E 004°21'0 0.0
2014-Jul-22 14:30N 51°17' E 004°21'0 0.0
2014-Jul-22 13:33N 51°17' E 004°21'0 0.0
2014-Jul-22 12:33N 51°17' E 004°21'0 0.0
2014-Jul-22 11:33N 51°17' E 004°21'0 0.0
2014-Jul-22 10:33N 51°17' E 004°21'0 0.0
2014-Jul-22 09:33N 51°17' E 004°21'0 0.0
2014-Jul-22 08:33N 51°17' E 004°21'0 0.0
2014-Jul-22 07:33N 51°17' E 004°21'0 0.0
2014-Jul-22 06:33N 51°17' E 004°21'0 0.0
2014-Jul-22 05:33N 51°17' E 004°21'0 0.0
2014-Jul-22 04:33N 51°17' E 004°21'0 0.0
2014-Jul-22 03:33N 51°17' E 004°21'0 0.0
2014-Jul-22 02:33N 51°17' E 004°21'0 0.0
2014-Jul-22 01:33N 51°17' E 004°21'0 0.0
2014-Jul-22 00:33N 51°17' E 004°21'0 0.0
2014-Jul-21 23:33N 51°17' E 004°21'0 0.0
2014-Jul-21 22:33N 51°17' E 004°21'0 0.0
2014-Jul-21 21:33N 51°17' E 004°21'0 0.0
2014-Jul-21 20:33N 51°17' E 004°21'0 0.0
2014-Jul-21 20:18N 51°17' E 004°21'0 0.0
2014-Jul-21 19:30N 51°17' E 004°21'0 0.0
2014-Jul-21 18:33N 51°17' E 004°21'0 0.0
2014-Jul-21 17:32N 51°17' E 004°21'0 0.0
2014-Jul-21 16:32N 51°17' E 004°21'0 0.0
2014-Jul-21 15:32N 51°17' E 004°21'0 0.0
2014-Jul-21 14:32N 51°17' E 004°21'0 0.0
2014-Jul-21 13:32N 51°17' E 004°21'0 0.0
2014-Jul-21 12:32N 51°17' E 004°21'0 0.0
2014-Jul-21 11:32N 51°17' E 004°21'0 0.0
2014-Jul-21 10:32N 51°17' E 004°21'0 0.0
2014-Jul-21 09:32N 51°17' E 004°21'0 0.0
2014-Jul-21 08:29N 51°17' E 004°21'0 0.0
2014-Jul-21 07:32N 51°17' E 004°21'0 0.0
2014-Jul-21 06:32N 51°17' E 004°21'0 0.0
2014-Jul-21 05:32N 51°17' E 004°21'0 0.0
2014-Jul-21 04:32N 51°17' E 004°21'0 0.0
2014-Jul-21 03:32N 51°17' E 004°21'0 0.0
2014-Jul-21 02:32N 51°17' E 004°21'0 0.0
2014-Jul-21 01:32N 51°17' E 004°21'0 0.0
2014-Jul-21 00:32N 51°17' E 004°21'0 0.0
2014-Jul-20 23:32N 51°17' E 004°21'0 0.0
2014-Jul-20 22:32N 51°17' E 004°21'0 0.0
2014-Jul-20 21:32N 51°17' E 004°21'0 0.0
2014-Jul-20 20:32N 51°17' E 004°21'0 0.0
2014-Jul-20 19:32N 51°17' E 004°21'0 0.0
2014-Jul-20 18:32N 51°17' E 004°21'0 0.0
2014-Jul-20 17:32N 51°17' E 004°21'0 0.0
2014-Jul-20 16:32N 51°17' E 004°21'0 0.0
2014-Jul-20 15:32N 51°17' E 004°21'0 0.0
2014-Jul-20 14:32N 51°17' E 004°21'0 0.0
2014-Jul-20 13:32N 51°17' E 004°21'0 0.0
2014-Jul-20 12:32N 51°17' E 004°21'0 0.0
2014-Jul-20 11:32N 51°17' E 004°21'0 0.0
2014-Jul-20 10:32N 51°17' E 004°21'0 0.0
2014-Jul-20 09:32N 51°17' E 004°21'0 0.0
2014-Jul-20 08:32N 51°17' E 004°21'0 0.0
2014-Jul-20 07:32N 51°17' E 004°21'0 0.0
2014-Jul-20 06:32N 51°17' E 004°21'0 0.0
2014-Jul-20 05:32N 51°17' E 004°21'0 0.0
2014-Jul-20 04:32N 51°17' E 004°21'0 0.0
2014-Jul-20 03:32N 51°17' E 004°21'0 0.0
2014-Jul-20 02:32N 51°17' E 004°21'0 0.0
2014-Jul-20 01:32N 51°17' E 004°21'0 0.0
2014-Jul-20 00:32N 51°17' E 004°21'0 0.0
2014-Jul-19 23:32N 51°17' E 004°21'0 0.0
2014-Jul-19 22:32N 51°17' E 004°21'0 0.0
2014-Jul-19 21:32N 51°17' E 004°21'0 0.0
2014-Jul-19 20:32N 51°17' E 004°21'0 0.0
2014-Jul-19 19:32N 51°17' E 004°21'0 0.0
2014-Jul-19 18:32N 51°17' E 004°21'0 0.0
2014-Jul-19 17:32N 51°17' E 004°21'0 0.0
2014-Jul-19 16:32N 51°17' E 004°21'0 0.0
2014-Jul-19 15:32N 51°17' E 004°21'0 0.0
2014-Jul-19 14:32N 51°17' E 004°21'0 0.0
2014-Jul-19 13:32N 51°17' E 004°21'0 0.0
2014-Jul-19 12:32N 51°17' E 004°21'0 0.0
2014-Jul-19 11:32N 51°17' E 004°21'0 0.0
2014-Jul-19 10:32N 51°17' E 004°21'0 0.0
2014-Jul-19 09:32N 51°17' E 004°21'0 0.0
2014-Jul-19 08:32N 51°17' E 004°21'0 0.0
2014-Jul-19 07:32N 51°17' E 004°21'0 0.0
2014-Jul-19 06:32N 51°17' E 004°21'  

Dump ship's entire track history